createdAt,value
2017-06-30T00:00:29.239Z,93.80
2017-06-30T00:02:55.675Z,92.90
2017-06-30T00:05:22.111Z,92.60
2017-06-30T00:07:48.520Z,92.60
2017-06-30T00:10:15.703Z,93.20
2017-06-30T00:12:42.135Z,93.20
2017-06-30T00:15:08.536Z,92.70
2017-06-30T00:17:34.975Z,92.40
2017-06-30T00:20:01.379Z,92.70
2017-06-30T00:22:27.776Z,92.30
2017-06-30T00:24:54.168Z,92.60
2017-06-30T00:27:21.307Z,91.90
2017-06-30T00:29:47.747Z,91.80
2017-06-30T00:32:14.157Z,91.80
2017-06-30T00:34:40.520Z,91.90
2017-06-30T00:37:06.964Z,91.60
2017-06-30T00:39:33.384Z,91.00
2017-06-30T00:41:59.805Z,91.20
2017-06-30T00:44:36.351Z,90.70
2017-06-30T00:47:02.760Z,90.50
2017-06-30T00:49:29.200Z,91.30
2017-06-30T00:51:55.651Z,91.10
2017-06-30T00:54:22.068Z,91.20
2017-06-30T00:56:48.464Z,91.20
2017-06-30T00:59:14.874Z,91.20
2017-06-30T01:01:41.289Z,90.90
2017-06-30T01:04:07.695Z,91.30
2017-06-30T01:06:34.133Z,91.10
2017-06-30T01:09:00.513Z,90.80
2017-06-30T01:11:26.948Z,91.20
2017-06-30T01:13:53.384Z,91.30
2017-06-30T01:16:19.820Z,91.10
2017-06-30T01:18:46.263Z,91.20
2017-06-30T01:21:13.408Z,91.30
2017-06-30T01:23:39.881Z,91.20
2017-06-30T01:26:06.347Z,91.10
2017-06-30T01:28:33.503Z,91.30
2017-06-30T01:31:00.012Z,91.20
2017-06-30T01:33:26.440Z,91.10
2017-06-30T01:35:52.848Z,91.00
2017-06-30T01:38:19.236Z,91.10
2017-06-30T01:40:45.700Z,90.70
2017-06-30T01:43:12.128Z,90.60
2017-06-30T01:45:38.571Z,90.50
2017-06-30T01:48:05.755Z,91.30
2017-06-30T01:50:32.189Z,90.90
2017-06-30T01:52:58.595Z,91.20
2017-06-30T01:55:25.044Z,91.50
2017-06-30T01:57:51.515Z,91.00
2017-06-30T02:00:17.957Z,91.10
2017-06-30T02:02:44.380Z,90.90
2017-06-30T02:05:10.824Z,91.00
2017-06-30T02:07:37.215Z,90.60
2017-06-30T02:10:03.603Z,90.70
2017-06-30T02:12:30.051Z,90.40
2017-06-30T02:14:56.419Z,90.00
2017-06-30T02:17:22.847Z,90.10
2017-06-30T02:19:49.235Z,90.30
2017-06-30T02:22:15.667Z,90.00
2017-06-30T02:24:42.099Z,89.20
2017-06-30T02:27:08.531Z,90.20
2017-06-30T02:29:34.923Z,89.80
2017-06-30T02:32:01.344Z,88.20
2017-06-30T02:34:27.834Z,88.40
2017-06-30T02:36:54.250Z,89.20
2017-06-30T02:39:20.691Z,89.70
2017-06-30T02:41:47.845Z,89.80
2017-06-30T02:44:14.240Z,89.80
2017-06-30T02:46:40.702Z,89.30
2017-06-30T02:49:07.179Z,89.70
2017-06-30T02:51:33.575Z,89.30
2017-06-30T02:53:59.984Z,88.80
2017-06-30T02:56:26.444Z,88.90
2017-06-30T02:58:52.877Z,89.00
2017-06-30T03:01:19.327Z,88.60
2017-06-30T03:03:45.763Z,89.00
2017-06-30T03:06:12.172Z,88.40
2017-06-30T03:08:39.353Z,89.40
2017-06-30T03:11:05.747Z,89.40
2017-06-30T03:13:32.129Z,89.30
2017-06-30T03:15:58.580Z,89.40
2017-06-30T03:18:25.782Z,90.00
2017-06-30T03:20:52.195Z,89.20
2017-06-30T03:23:18.636Z,89.30
2017-06-30T03:25:45.055Z,90.10
2017-06-30T03:28:11.444Z,90.00
2017-06-30T03:30:38.285Z,89.40
2017-06-30T03:33:04.735Z,89.60
2017-06-30T03:35:31.191Z,90.00
2017-06-30T03:37:57.622Z,90.10
2017-06-30T03:40:24.043Z,90.10
2017-06-30T03:42:50.467Z,90.50
2017-06-30T03:45:17.633Z,90.30
2017-06-30T03:47:44.087Z,90.30
2017-06-30T03:50:10.488Z,90.40
2017-06-30T03:52:36.898Z,90.30
2017-06-30T03:55:03.299Z,90.50
2017-06-30T03:57:30.444Z,90.40
2017-06-30T04:00:00.011Z,90.40
2017-06-30T04:02:26.428Z,90.10
2017-06-30T04:04:53.847Z,90.10
2017-06-30T04:07:20.272Z,90.00
2017-06-30T04:09:46.686Z,90.30
2017-06-30T04:12:13.083Z,90.20
2017-06-30T04:14:39.527Z,90.10
2017-06-30T04:17:05.920Z,87.20
2017-06-30T04:19:32.287Z,88.50
2017-06-30T04:21:58.747Z,87.80
2017-06-30T04:24:25.148Z,88.10
2017-06-30T04:26:51.541Z,89.20
2017-06-30T04:29:17.948Z,88.10
2017-06-30T04:31:44.316Z,87.20
2017-06-30T04:34:10.756Z,86.10
2017-06-30T04:36:37.186Z,86.00
2017-06-30T04:39:03.635Z,84.80
2017-06-30T04:41:30.129Z,85.30
2017-06-30T04:43:56.548Z,85.90
2017-06-30T04:46:22.964Z,84.60
2017-06-30T04:48:49.360Z,84.90
2017-06-30T04:51:16.492Z,84.80
2017-06-30T04:53:42.913Z,84.60
2017-06-30T04:56:09.313Z,84.00
2017-06-30T04:58:35.776Z,84.40
2017-06-30T05:01:02.896Z,84.50
2017-06-30T05:03:29.279Z,83.90
2017-06-30T05:05:55.737Z,84.50
2017-06-30T05:08:22.135Z,84.20
2017-06-30T05:10:48.592Z,84.80
2017-06-30T05:13:15.063Z,83.60
2017-06-30T05:15:41.487Z,85.20
2017-06-30T05:18:08.263Z,83.10
2017-06-30T05:20:34.711Z,85.00
2017-06-30T05:23:01.156Z,84.00
2017-06-30T05:25:27.556Z,85.30
2017-06-30T05:27:54.020Z,84.30
2017-06-30T05:30:20.420Z,84.20
2017-06-30T05:32:47.576Z,84.50
2017-06-30T05:35:14.040Z,84.60
2017-06-30T05:37:40.438Z,84.00
2017-06-30T05:40:06.872Z,84.80
2017-06-30T05:42:33.368Z,85.00
2017-06-30T05:44:59.751Z,83.20
2017-06-30T05:47:26.123Z,82.20
2017-06-30T05:49:52.532Z,80.50
2017-06-30T05:52:18.903Z,81.80
2017-06-30T05:54:45.280Z,82.60
2017-06-30T05:57:11.681Z,83.10
2017-06-30T05:59:38.091Z,78.70
2017-06-30T06:02:04.483Z,77.80
2017-06-30T06:04:30.954Z,78.80
2017-06-30T06:06:58.167Z,79.90
2017-06-30T06:09:24.610Z,79.80
2017-06-30T06:11:52.153Z,79.20
2017-06-30T06:14:18.555Z,78.10
2017-06-30T06:16:44.951Z,80.80
2017-06-30T06:19:11.397Z,79.20
2017-06-30T06:21:37.812Z,79.60
2017-06-30T06:24:04.226Z,79.60
2017-06-30T06:26:30.694Z,80.20
2017-06-30T06:28:57.080Z,80.70
2017-06-30T06:31:23.508Z,79.90
2017-06-30T06:33:49.904Z,80.80
2017-06-30T06:36:16.299Z,77.90
2017-06-30T06:38:42.731Z,79.10
2017-06-30T06:41:09.140Z,77.90
2017-06-30T06:43:35.540Z,77.90
2017-06-30T06:46:02.164Z,78.90
2017-06-30T06:48:28.567Z,77.80
2017-06-30T06:50:54.976Z,76.70
2017-06-30T06:53:21.447Z,77.30
2017-06-30T06:55:47.872Z,76.20
2017-06-30T06:58:14.304Z,74.80
2017-06-30T07:00:40.688Z,76.10
2017-06-30T07:03:07.103Z,73.50
2017-06-30T07:05:33.541Z,75.70
2017-06-30T07:07:59.971Z,73.70
2017-06-30T07:10:26.389Z,73.00
2017-06-30T07:12:52.859Z,71.20
2017-06-30T07:15:20.004Z,70.50
2017-06-30T07:17:46.403Z,70.60
2017-06-30T07:20:12.792Z,71.00
2017-06-30T07:22:39.223Z,72.00
2017-06-30T07:25:05.647Z,68.40
2017-06-30T07:27:32.043Z,69.00
2017-06-30T07:29:58.440Z,70.00
2017-06-30T07:32:24.849Z,69.90
2017-06-30T07:34:51.252Z,70.10
2017-06-30T07:37:18.675Z,68.00
2017-06-30T07:39:45.079Z,68.60
2017-06-30T07:42:11.476Z,69.40
2017-06-30T07:44:38.703Z,69.10
2017-06-30T07:47:05.808Z,68.80
2017-06-30T07:49:32.207Z,68.80
2017-06-30T07:51:58.625Z,67.00
2017-06-30T07:54:25.052Z,68.40
2017-06-30T07:56:51.440Z,67.70
2017-06-30T07:59:17.893Z,68.10
2017-06-30T08:01:44.312Z,69.00
2017-06-30T08:04:10.716Z,65.80
2017-06-30T08:06:37.117Z,66.10
2017-06-30T08:09:03.584Z,66.00
2017-06-30T08:11:31.055Z,67.80
2017-06-30T08:13:57.531Z,64.20
2017-06-30T08:16:24.260Z,62.70
2017-06-30T08:18:50.664Z,61.60
2017-06-30T08:21:17.104Z,63.40
2017-06-30T08:23:43.504Z,60.60
2017-06-30T08:26:10.944Z,59.40
2017-06-30T08:28:37.381Z,59.20
2017-06-30T08:31:04.559Z,61.10
2017-06-30T08:33:32.087Z,60.70
2017-06-30T08:35:58.472Z,59.40
2017-06-30T08:38:25.632Z,60.30
2017-06-30T08:40:52.736Z,59.10
2017-06-30T08:43:19.925Z,57.40
2017-06-30T08:45:46.348Z,57.20
2017-06-30T08:48:12.760Z,56.90
2017-06-30T08:50:39.187Z,57.20
2017-06-30T08:53:05.595Z,58.60
2017-06-30T08:55:32.070Z,59.50
2017-06-30T08:57:59.251Z,59.70
2017-06-30T09:00:25.784Z,59.80
2017-06-30T09:02:52.228Z,59.00
2017-06-30T09:05:18.672Z,60.60
2017-06-30T09:07:45.169Z,59.60
2017-06-30T09:10:12.359Z,56.20
2017-06-30T09:12:38.778Z,56.20
2017-06-30T09:15:05.279Z,58.60
2017-06-30T09:17:31.702Z,57.40
2017-06-30T09:19:58.174Z,58.80
2017-06-30T09:22:24.605Z,59.80
2017-06-30T09:24:51.008Z,55.70
2017-06-30T09:27:17.403Z,55.80
2017-06-30T09:29:44.583Z,55.00
2017-06-30T09:32:11.728Z,53.40
2017-06-30T09:34:38.924Z,54.20
2017-06-30T09:37:06.807Z,55.70
2017-06-30T09:39:34.157Z,54.80
2017-06-30T09:42:00.635Z,54.30
2017-06-30T09:44:27.840Z,54.80
2017-06-30T09:46:54.314Z,54.70
2017-06-30T09:49:21.669Z,54.50
2017-06-30T09:51:49.136Z,54.50
2017-06-30T09:54:15.527Z,53.30
2017-06-30T09:56:42.010Z,50.10
2017-06-30T09:59:08.492Z,49.70
2017-06-30T10:01:34.876Z,49.10
2017-06-30T10:04:01.284Z,49.80
2017-06-30T10:06:27.716Z,52.50
2017-06-30T10:08:54.156Z,48.50
2017-06-30T10:11:20.659Z,49.30
2017-06-30T10:13:47.400Z,48.30
2017-06-30T10:16:13.884Z,48.00
2017-06-30T10:18:41.120Z,51.00
2017-06-30T10:21:07.744Z,51.00
2017-06-30T10:23:34.859Z,52.00
2017-06-30T10:26:02.013Z,52.50
2017-06-30T10:28:28.446Z,52.50
2017-06-30T10:30:54.821Z,53.20
2017-06-30T10:33:21.241Z,53.10
2017-06-30T10:35:47.764Z,53.30
2017-06-30T10:38:14.192Z,53.00
2017-06-30T10:40:40.772Z,53.20
2017-06-30T10:43:07.180Z,52.60
2017-06-30T10:45:33.790Z,51.40
2017-06-30T10:48:00.215Z,52.90
2017-06-30T10:50:26.668Z,54.10
2017-06-30T10:52:53.055Z,52.70
2017-06-30T10:55:19.476Z,52.10
2017-06-30T10:57:45.900Z,51.20
2017-06-30T11:00:12.301Z,52.80
2017-06-30T11:02:38.710Z,47.80
2017-06-30T11:05:05.144Z,48.50
2017-06-30T11:07:32.288Z,51.10
2017-06-30T11:09:58.740Z,50.60
2017-06-30T11:12:25.175Z,51.20
2017-06-30T11:14:51.625Z,50.90
2017-06-30T11:17:18.063Z,52.30
2017-06-30T11:19:44.483Z,52.70
2017-06-30T11:22:10.904Z,56.60
2017-06-30T11:24:37.331Z,51.20
2017-06-30T11:27:03.748Z,47.80
2017-06-30T11:29:30.148Z,49.00
2017-06-30T11:31:56.557Z,49.20
2017-06-30T11:34:22.955Z,49.40
2017-06-30T11:36:49.307Z,50.60
2017-06-30T11:39:15.752Z,49.90
2017-06-30T11:41:42.192Z,48.20
2017-06-30T11:44:08.612Z,48.60
2017-06-30T11:46:34.992Z,50.60
2017-06-30T11:49:01.608Z,49.80
2017-06-30T11:51:27.992Z,49.40
2017-06-30T11:53:54.447Z,48.70
2017-06-30T11:56:20.927Z,50.60
2017-06-30T11:58:47.379Z,49.60
2017-06-30T12:01:13.838Z,47.40
2017-06-30T12:03:40.275Z,48.60
2017-06-30T12:06:06.661Z,49.90
2017-06-30T12:08:33.139Z,50.60
2017-06-30T12:11:00.419Z,50.30
2017-06-30T12:13:27.643Z,49.80
2017-06-30T12:15:54.859Z,52.30
2017-06-30T12:18:22.088Z,49.70
2017-06-30T12:20:48.460Z,49.70
2017-06-30T12:23:14.959Z,51.00
2017-06-30T12:25:42.349Z,48.60
2017-06-30T12:28:08.768Z,48.60
2017-06-30T12:30:35.140Z,50.40
2017-06-30T12:33:01.522Z,50.50
2017-06-30T12:35:27.955Z,49.50
2017-06-30T12:37:54.484Z,51.80
2017-06-30T12:40:20.908Z,50.50
2017-06-30T12:42:47.335Z,48.40
2017-06-30T12:45:13.720Z,50.10
2017-06-30T12:47:40.826Z,50.00
2017-06-30T12:50:07.191Z,50.00
2017-06-30T12:52:34.407Z,47.80
2017-06-30T12:55:00.807Z,47.80
2017-06-30T12:57:28.207Z,47.80
2017-06-30T12:59:55.620Z,48.60
2017-06-30T13:02:22.124Z,52.10
2017-06-30T13:04:48.559Z,50.10
2017-06-30T13:07:15.009Z,45.60
2017-06-30T13:09:41.457Z,46.70
2017-06-30T13:12:08.572Z,42.10
2017-06-30T13:14:35.001Z,42.10
2017-06-30T13:17:01.357Z,40.50
2017-06-30T13:19:27.737Z,38.40
2017-06-30T13:21:54.117Z,40.60
2017-06-30T13:24:22.127Z,34.50
2017-06-30T13:26:48.472Z,34.90
2017-06-30T13:29:14.870Z,36.60
2017-06-30T13:31:41.517Z,38.30
2017-06-30T13:34:07.875Z,38.70
2017-06-30T13:36:34.286Z,37.30
2017-06-30T13:39:00.674Z,37.40
2017-06-30T13:41:27.161Z,42.60
2017-06-30T13:43:53.614Z,35.00
2017-06-30T13:46:20.036Z,34.00
2017-06-30T13:48:46.461Z,32.30
2017-06-30T13:51:12.861Z,33.10
2017-06-30T13:53:39.744Z,33.00
2017-06-30T13:56:06.204Z,30.90
2017-06-30T13:58:32.611Z,26.90
2017-06-30T14:00:58.972Z,27.50
2017-06-30T14:03:25.525Z,26.20
2017-06-30T14:05:52.099Z,27.40
2017-06-30T14:08:18.495Z,26.20
2017-06-30T14:10:44.916Z,29.00
2017-06-30T14:13:12.725Z,27.50
2017-06-30T14:15:39.173Z,24.00
2017-06-30T14:18:05.552Z,25.30
2017-06-30T14:20:31.975Z,26.20
2017-06-30T14:22:58.440Z,27.40
2017-06-30T14:25:25.255Z,32.40
2017-06-30T14:27:51.649Z,34.40
2017-06-30T14:30:18.068Z,31.90
2017-06-30T14:32:44.447Z,31.00
2017-06-30T14:35:12.584Z,26.10
2017-06-30T14:37:39.042Z,26.00
2017-06-30T14:40:06.185Z,26.50
2017-06-30T14:42:32.596Z,26.50
2017-06-30T14:44:58.976Z,25.30
2017-06-30T14:47:25.544Z,21.90
2017-06-30T14:49:52.036Z,21.60
2017-06-30T14:52:19.197Z,24.40
2017-06-30T14:54:45.592Z,24.30
2017-06-30T14:57:11.996Z,25.00
2017-06-30T14:59:38.441Z,23.00
2017-06-30T15:02:04.820Z,25.10
2017-06-30T15:04:31.224Z,28.90
2017-06-30T15:06:57.619Z,28.10
2017-06-30T15:09:24.243Z,28.90
2017-06-30T15:11:50.700Z,31.20
2017-06-30T15:14:17.133Z,30.00
2017-06-30T15:16:43.533Z,32.00
2017-06-30T15:19:09.948Z,34.30
2017-06-30T15:21:37.144Z,33.30
2017-06-30T15:24:03.628Z,33.30
2017-06-30T15:26:30.105Z,37.30
2017-06-30T15:28:57.228Z,37.20
2017-06-30T15:31:23.646Z,36.70
2017-06-30T15:33:50.054Z,35.60
2017-06-30T15:36:16.519Z,35.50
2017-06-30T15:38:42.970Z,35.90
2017-06-30T15:41:09.394Z,38.00
2017-06-30T15:43:35.821Z,36.70
2017-06-30T15:46:03.300Z,35.60
2017-06-30T15:48:29.672Z,35.30
2017-06-30T15:50:56.051Z,36.80
2017-06-30T15:53:23.136Z,39.40
2017-06-30T15:55:49.598Z,38.80
2017-06-30T15:58:16.079Z,36.30
2017-06-30T16:00:43.588Z,37.80
2017-06-30T16:03:10.065Z,37.80
2017-06-30T16:05:36.557Z,38.00
2017-06-30T16:08:02.992Z,38.40
2017-06-30T16:10:29.396Z,39.60
2017-06-30T16:12:55.807Z,41.30
2017-06-30T16:15:22.260Z,39.90
2017-06-30T16:17:48.652Z,41.10
2017-06-30T16:20:15.073Z,42.10
2017-06-30T16:22:41.483Z,40.80
2017-06-30T16:25:07.909Z,42.10
2017-06-30T16:27:34.375Z,42.40
2017-06-30T16:30:00.822Z,43.40
2017-06-30T16:32:27.372Z,45.10
2017-06-30T16:34:53.841Z,46.90
2017-06-30T16:37:20.316Z,48.30
2017-06-30T16:39:46.763Z,48.60
2017-06-30T16:42:13.174Z,49.60
2017-06-30T16:44:40.301Z,50.40
2017-06-30T16:47:06.700Z,50.40
2017-06-30T16:49:33.143Z,51.60
2017-06-30T16:52:00.276Z,50.90
2017-06-30T16:54:26.704Z,50.90
2017-06-30T16:56:53.131Z,49.20
2017-06-30T16:59:20.623Z,50.90
2017-06-30T17:01:47.101Z,50.20
2017-06-30T17:04:13.560Z,51.60
2017-06-30T17:06:40.063Z,48.70
2017-06-30T17:09:06.680Z,52.90
2017-06-30T17:11:33.099Z,49.50
2017-06-30T17:13:59.511Z,50.10
2017-06-30T17:16:26.239Z,50.70
2017-06-30T17:18:52.641Z,51.40
2017-06-30T17:21:19.061Z,52.60
2017-06-30T17:23:45.481Z,55.30
2017-06-30T17:26:11.916Z,53.40
2017-06-30T17:28:38.329Z,54.50
2017-06-30T17:31:04.792Z,57.50
2017-06-30T17:33:32.325Z,56.30
2017-06-30T17:35:58.713Z,52.90
2017-06-30T17:38:25.137Z,52.20
2017-06-30T17:40:51.700Z,54.40
2017-06-30T17:43:18.083Z,53.90
2017-06-30T17:45:45.355Z,55.40
2017-06-30T17:48:11.929Z,53.00
2017-06-30T17:50:38.311Z,52.90
2017-06-30T17:53:04.723Z,52.10
2017-06-30T17:55:31.199Z,53.40
2017-06-30T17:57:57.613Z,52.40
2017-06-30T18:00:24.003Z,53.60
2017-06-30T18:02:50.435Z,55.80
2017-06-30T18:05:16.863Z,54.10
2017-06-30T18:07:44.318Z,55.40
2017-06-30T18:10:11.483Z,54.10
2017-06-30T18:12:38.684Z,54.20
2017-06-30T18:15:05.187Z,54.10
2017-06-30T18:17:31.615Z,53.80
2017-06-30T18:19:58.150Z,52.20
2017-06-30T18:22:25.520Z,55.30
2017-06-30T18:24:52.084Z,54.50
2017-06-30T18:27:18.461Z,52.90
2017-06-30T18:29:45.655Z,55.30
2017-06-30T18:32:12.807Z,56.80
2017-06-30T18:34:40.020Z,59.70
2017-06-30T18:37:06.504Z,59.40
2017-06-30T18:39:32.918Z,55.70
2017-06-30T18:41:59.304Z,55.60
2017-06-30T18:44:25.690Z,53.70
2017-06-30T18:46:52.164Z,56.60
2017-06-30T18:49:18.575Z,57.70
2017-06-30T18:51:45.193Z,58.10
2017-06-30T18:54:11.820Z,58.60
2017-06-30T18:56:39.272Z,54.70
2017-06-30T18:59:05.970Z,54.70
2017-06-30T19:01:33.629Z,59.30
2017-06-30T19:04:00.898Z,56.30
2017-06-30T19:06:27.666Z,56.20
2017-06-30T19:08:54.522Z,59.70
2017-06-30T19:11:21.022Z,60.90
2017-06-30T19:13:47.551Z,59.70
2017-06-30T19:16:14.195Z,60.30
2017-06-30T19:18:41.458Z,58.40
2017-06-30T19:21:08.027Z,58.30
2017-06-30T19:23:34.573Z,56.60
2017-06-30T19:26:01.885Z,57.40
2017-06-30T19:28:28.393Z,57.40
2017-06-30T19:30:54.909Z,58.50
2017-06-30T19:33:21.387Z,56.60
2017-06-30T19:35:47.907Z,56.00
2017-06-30T19:38:14.417Z,58.50
2017-06-30T19:40:40.908Z,57.30
2017-06-30T19:43:07.325Z,55.70
2017-06-30T19:45:33.885Z,54.00
2017-06-30T19:48:00.355Z,55.30
2017-06-30T19:50:26.916Z,54.40
2017-06-30T19:52:53.444Z,55.60
2017-06-30T19:55:19.942Z,53.70
2017-06-30T19:57:46.486Z,54.80
2017-06-30T20:00:12.970Z,53.30
2017-06-30T20:02:41.287Z,53.60
2017-06-30T20:05:07.853Z,53.60
2017-06-30T20:07:34.490Z,54.00
2017-06-30T20:10:01.995Z,54.00
2017-06-30T20:12:28.742Z,54.50
2017-06-30T20:14:55.451Z,55.10
2017-06-30T20:17:21.995Z,55.20
2017-06-30T20:19:49.242Z,55.00
2017-06-30T20:22:15.693Z,55.00
2017-06-30T20:24:42.116Z,55.10
2017-06-30T20:27:08.713Z,55.70
2017-06-30T20:29:35.929Z,57.90
2017-06-30T20:32:03.118Z,57.70
2017-06-30T20:34:29.610Z,57.60
2017-06-30T20:36:56.044Z,56.60
2017-06-30T20:39:22.441Z,56.60
2017-06-30T20:41:48.993Z,56.50
2017-06-30T20:44:16.514Z,56.00
2017-06-30T20:46:42.955Z,55.90
2017-06-30T20:49:09.540Z,56.40
2017-06-30T20:51:37.160Z,56.60
2017-06-30T20:54:03.653Z,56.10
2017-06-30T20:56:30.815Z,57.80
2017-06-30T20:58:57.322Z,57.80
2017-06-30T21:01:23.740Z,56.70
2017-06-30T21:03:50.191Z,56.80
2017-06-30T21:06:16.605Z,57.40
2017-06-30T21:08:44.113Z,57.50
2017-06-30T21:11:10.592Z,57.30
2017-06-30T21:13:37.023Z,57.20
2017-06-30T21:16:03.384Z,57.50
2017-06-30T21:18:30.676Z,57.30
2017-06-30T21:20:57.100Z,57.30
2017-06-30T21:23:23.527Z,57.60
2017-06-30T21:25:50.713Z,57.30
2017-06-30T21:28:17.116Z,57.20
2017-06-30T21:30:43.568Z,57.80
2017-06-30T21:33:09.980Z,57.90
2017-06-30T21:35:36.377Z,58.80
2017-06-30T21:38:02.771Z,57.70
2017-06-30T21:40:29.179Z,57.40
2017-06-30T21:42:55.581Z,57.90
2017-06-30T21:45:22.987Z,58.60
2017-06-30T21:47:49.408Z,57.90
2017-06-30T21:50:15.853Z,58.60
2017-06-30T21:52:42.265Z,57.80
2017-06-30T21:55:08.715Z,58.30
2017-06-30T21:57:35.144Z,58.00
2017-06-30T22:00:01.561Z,58.70
2017-06-30T22:02:28.683Z,58.40
2017-06-30T22:04:55.102Z,58.40
2017-06-30T22:07:21.553Z,58.80
2017-06-30T22:09:48.008Z,59.30
2017-06-30T22:12:14.465Z,59.40
2017-06-30T22:14:40.888Z,59.00
2017-06-30T22:17:07.358Z,59.80
2017-06-30T22:19:33.822Z,59.40
2017-06-30T22:22:00.200Z,59.40
2017-06-30T22:24:26.596Z,59.40
2017-06-30T22:26:53.027Z,59.50
2017-06-30T22:29:19.456Z,60.90
2017-06-30T22:31:45.875Z,60.30
2017-06-30T22:34:12.293Z,62.10
2017-06-30T22:36:39.435Z,62.20
2017-06-30T22:39:06.607Z,63.30
2017-06-30T22:41:33.002Z,63.30
2017-06-30T22:43:59.450Z,62.50
2017-06-30T22:46:25.868Z,62.90
2017-06-30T22:48:52.324Z,62.90
2017-06-30T22:51:18.716Z,63.10
2017-06-30T22:53:45.131Z,62.30
2017-06-30T22:56:11.588Z,63.80
2017-06-30T22:58:38.032Z,63.60
2017-06-30T23:01:04.463Z,63.60
2017-06-30T23:03:30.910Z,64.60
2017-06-30T23:05:57.372Z,64.10
2017-06-30T23:08:23.772Z,66.10
2017-06-30T23:10:50.188Z,64.20
2017-06-30T23:13:16.551Z,65.50
2017-06-30T23:15:43.023Z,65.00
2017-06-30T23:18:09.503Z,66.00
2017-06-30T23:20:35.928Z,67.20
2017-06-30T23:23:02.324Z,66.70
2017-06-30T23:25:28.774Z,66.30
2017-06-30T23:27:56.204Z,66.50
2017-06-30T23:30:22.652Z,67.80
2017-06-30T23:32:49.119Z,68.10
2017-06-30T23:35:15.528Z,67.60
2017-06-30T23:37:41.976Z,67.70
2017-06-30T23:40:08.477Z,68.40
2017-06-30T23:42:34.919Z,68.90
2017-06-30T23:45:01.328Z,69.20
2017-06-30T23:47:27.775Z,69.80
2017-06-30T23:49:54.269Z,70.70
2017-06-30T23:52:20.721Z,70.40
2017-06-30T23:54:47.171Z,70.80
2017-06-30T23:57:13.690Z,71.00
2017-06-30T23:59:40.136Z,71.60
